sensor_id;sensor_type;location;lat;lon;timestamp;P1;durP1;ratioP1;P2;durP2;ratioP2
21697;SDS011;11010;49.548;11.926;2023-04-24T00:02:16;3.53;;;1.00;;
21697;SDS011;11010;49.548;11.926;2023-04-24T00:04:43;5.27;;;1.17;;
21697;SDS011;11010;49.548;11.926;2023-04-24T00:07:11;3.60;;;1.00;;
21697;SDS011;11010;49.548;11.926;2023-04-24T00:09:39;5.00;;;1.10;;
21697;SDS011;11010;49.548;11.926;2023-04-24T00:12:07;3.43;;;1.00;;
21697;SDS011;11010;49.548;11.926;2023-04-24T00:14:35;3.77;;;1.00;;
21697;SDS011;11010;49.548;11.926;2023-04-24T00:17:03;3.83;;;1.03;;
21697;SDS011;11010;49.548;11.926;2023-04-24T00:19:30;4.00;;;1.10;;
21697;SDS011;11010;49.548;11.926;2023-04-24T00:21:58;4.63;;;1.10;;
21697;SDS011;11010;49.548;11.926;2023-04-24T00:24:25;3.17;;;1.00;;
21697;SDS011;11010;49.548;11.926;2023-04-24T00:26:52;6.67;;;2.10;;
21697;SDS011;11010;49.548;11.926;2023-04-24T00:29:20;6.93;;;1.90;;
21697;SDS011;11010;49.548;11.926;2023-04-24T00:31:47;8.17;;;2.20;;
21697;SDS011;11010;49.548;11.926;2023-04-24T00:34:15;5.47;;;1.40;;
21697;SDS011;11010;49.548;11.926;2023-04-24T00:36:42;4.07;;;1.20;;
21697;SDS011;11010;49.548;11.926;2023-04-24T00:39:10;5.47;;;1.13;;
21697;SDS011;11010;49.548;11.926;2023-04-24T00:41:37;4.70;;;1.23;;
21697;SDS011;11010;49.548;11.926;2023-04-24T00:44:04;5.30;;;1.30;;
21697;SDS011;11010;49.548;11.926;2023-04-24T00:46:32;5.43;;;1.20;;
21697;SDS011;11010;49.548;11.926;2023-04-24T00:48:59;4.60;;;1.20;;
21697;SDS011;11010;49.548;11.926;2023-04-24T00:51:27;5.10;;;1.27;;
21697;SDS011;11010;49.548;11.926;2023-04-24T00:53:54;4.97;;;1.27;;
21697;SDS011;11010;49.548;11.926;2023-04-24T00:56:22;4.63;;;1.23;;
21697;SDS011;11010;49.548;11.926;2023-04-24T00:58:50;4.73;;;1.30;;
21697;SDS011;11010;49.548;11.926;2023-04-24T01:01:21;5.97;;;1.30;;
21697;SDS011;11010;49.548;11.926;2023-04-24T01:03:50;4.67;;;1.23;;
21697;SDS011;11010;49.548;11.926;2023-04-24T01:06:21;5.13;;;1.30;;
21697;SDS011;11010;49.548;11.926;2023-04-24T01:08:50;6.20;;;1.30;;
21697;SDS011;11010;49.548;11.926;2023-04-24T01:11:17;5.37;;;1.37;;
21697;SDS011;11010;49.548;11.926;2023-04-24T01:13:45;5.90;;;1.30;;
21697;SDS011;11010;49.548;11.926;2023-04-24T01:16:14;5.70;;;1.40;;
21697;SDS011;11010;49.548;11.926;2023-04-24T01:18:44;5.40;;;1.10;;
21697;SDS011;11010;49.548;11.926;2023-04-24T01:21:13;5.30;;;1.30;;
21697;SDS011;11010;49.548;11.926;2023-04-24T01:23:43;4.67;;;1.20;;
21697;SDS011;11010;49.548;11.926;2023-04-24T01:26:12;5.70;;;1.50;;
21697;SDS011;11010;49.548;11.926;2023-04-24T01:28:41;4.53;;;1.30;;
21697;SDS011;11010;49.548;11.926;2023-04-24T01:31:09;5.43;;;1.30;;
21697;SDS011;11010;49.548;11.926;2023-04-24T01:33:36;5.37;;;1.40;;
21697;SDS011;11010;49.548;11.926;2023-04-24T01:36:04;6.07;;;1.40;;
21697;SDS011;11010;49.548;11.926;2023-04-24T01:38:32;5.30;;;1.13;;
21697;SDS011;11010;49.548;11.926;2023-04-24T01:40:59;4.47;;;1.17;;
21697;SDS011;11010;49.548;11.926;2023-04-24T01:43:28;4.97;;;1.20;;
21697;SDS011;11010;49.548;11.926;2023-04-24T01:45:57;5.03;;;1.20;;
21697;SDS011;11010;49.548;11.926;2023-04-24T01:48:24;4.23;;;1.20;;
21697;SDS011;11010;49.548;11.926;2023-04-24T01:50:52;5.07;;;1.30;;
21697;SDS011;11010;49.548;11.926;2023-04-24T01:53:19;5.77;;;1.33;;
21697;SDS011;11010;49.548;11.926;2023-04-24T01:55:47;5.47;;;1.30;;
21697;SDS011;11010;49.548;11.926;2023-04-24T01:58:14;7.67;;;1.70;;
21697;SDS011;11010;49.548;11.926;2023-04-24T02:00:42;3.63;;;1.20;;
21697;SDS011;11010;49.548;11.926;2023-04-24T02:03:09;6.17;;;1.30;;
21697;SDS011;11010;49.548;11.926;2023-04-24T02:05:37;5.37;;;1.13;;
21697;SDS011;11010;49.548;11.926;2023-04-24T02:08:04;4.43;;;1.10;;
21697;SDS011;11010;49.548;11.926;2023-04-24T02:10:36;5.63;;;1.30;;
21697;SDS011;11010;49.548;11.926;2023-04-24T02:13:04;5.23;;;1.43;;
21697;SDS011;11010;49.548;11.926;2023-04-24T02:15:31;6.47;;;1.30;;
21697;SDS011;11010;49.548;11.926;2023-04-24T02:17:59;6.50;;;1.60;;
21697;SDS011;11010;49.548;11.926;2023-04-24T02:20:26;7.17;;;1.40;;
21697;SDS011;11010;49.548;11.926;2023-04-24T02:22:54;6.53;;;1.60;;
21697;SDS011;11010;49.548;11.926;2023-04-24T02:25:21;5.70;;;1.43;;
21697;SDS011;11010;49.548;11.926;2023-04-24T02:27:49;4.70;;;1.30;;
21697;SDS011;11010;49.548;11.926;2023-04-24T02:30:16;5.50;;;1.23;;
21697;SDS011;11010;49.548;11.926;2023-04-24T02:32:44;5.30;;;1.30;;
21697;SDS011;11010;49.548;11.926;2023-04-24T02:35:11;5.13;;;1.50;;
21697;SDS011;11010;49.548;11.926;2023-04-24T02:37:39;5.57;;;1.30;;
21697;SDS011;11010;49.548;11.926;2023-04-24T02:40:06;5.90;;;1.50;;
21697;SDS011;11010;49.548;11.926;2023-04-24T02:42:34;5.73;;;1.50;;
21697;SDS011;11010;49.548;11.926;2023-04-24T02:45:02;5.73;;;1.50;;
21697;SDS011;11010;49.548;11.926;2023-04-24T02:47:30;5.53;;;1.57;;
21697;SDS011;11010;49.548;11.926;2023-04-24T02:49:59;6.70;;;1.60;;
21697;SDS011;11010;49.548;11.926;2023-04-24T02:52:26;6.60;;;1.60;;
21697;SDS011;11010;49.548;11.926;2023-04-24T02:54:54;5.03;;;1.50;;
21697;SDS011;11010;49.548;11.926;2023-04-24T02:57:21;4.83;;;1.23;;
21697;SDS011;11010;49.548;11.926;2023-04-24T02:59:49;5.77;;;1.60;;
21697;SDS011;11010;49.548;11.926;2023-04-24T03:02:16;5.87;;;1.57;;
21697;SDS011;11010;49.548;11.926;2023-04-24T03:04:44;5.67;;;1.40;;
21697;SDS011;11010;49.548;11.926;2023-04-24T03:07:12;4.97;;;1.30;;
21697;SDS011;11010;49.548;11.926;2023-04-24T03:09:42;5.73;;;1.40;;
21697;SDS011;11010;49.548;11.926;2023-04-24T03:12:10;4.97;;;1.27;;
21697;SDS011;11010;49.548;11.926;2023-04-24T03:14:38;5.23;;;1.23;;
21697;SDS011;11010;49.548;11.926;2023-04-24T03:17:05;4.10;;;1.30;;
21697;SDS011;11010;49.548;11.926;2023-04-24T03:19:33;4.60;;;1.30;;
21697;SDS011;11010;49.548;11.926;2023-04-24T03:22:08;5.77;;;1.30;;
21697;SDS011;11010;49.548;11.926;2023-04-24T03:24:37;5.70;;;1.30;;
21697;SDS011;11010;49.548;11.926;2023-04-24T03:27:04;7.33;;;1.50;;
21697;SDS011;11010;49.548;11.926;2023-04-24T03:30:01;5.03;;;1.53;;
21697;SDS011;11010;49.548;11.926;2023-04-24T03:32:51;6.40;;;1.40;;
21697;SDS011;11010;49.548;11.926;2023-04-24T03:35:23;6.03;;;1.57;;
21697;SDS011;11010;49.548;11.926;2023-04-24T03:37:52;6.53;;;1.50;;
21697;SDS011;11010;49.548;11.926;2023-04-24T03:40:37;5.10;;;1.37;;
21697;SDS011;11010;49.548;11.926;2023-04-24T03:43:16;5.30;;;1.50;;
21697;SDS011;11010;49.548;11.926;2023-04-24T03:45:44;5.60;;;1.40;;
21697;SDS011;11010;49.548;11.926;2023-04-24T03:48:13;5.90;;;1.60;;
21697;SDS011;11010;49.548;11.926;2023-04-24T03:50:41;5.60;;;1.30;;
21697;SDS011;11010;49.548;11.926;2023-04-24T03:53:10;7.23;;;1.60;;
21697;SDS011;11010;49.548;11.926;2023-04-24T03:55:40;4.90;;;1.40;;
21697;SDS011;11010;49.548;11.926;2023-04-24T03:58:08;6.47;;;1.57;;
21697;SDS011;11010;49.548;11.926;2023-04-24T04:00:37;6.13;;;1.60;;
21697;SDS011;11010;49.548;11.926;2023-04-24T04:03:24;5.93;;;1.60;;
21697;SDS011;11010;49.548;11.926;2023-04-24T04:05:52;5.63;;;1.40;;
21697;SDS011;11010;49.548;11.926;2023-04-24T04:08:20;6.30;;;1.53;;
21697;SDS011;11010;49.548;11.926;2023-04-24T04:10:48;5.57;;;1.40;;
21697;SDS011;11010;49.548;11.926;2023-04-24T04:13:16;5.27;;;1.43;;
21697;SDS011;11010;49.548;11.926;2023-04-24T04:15:43;7.43;;;1.50;;
21697;SDS011;11010;49.548;11.926;2023-04-24T04:18:11;6.07;;;1.40;;
21697;SDS011;11010;49.548;11.926;2023-04-24T04:20:39;5.43;;;1.30;;
21697;SDS011;11010;49.548;11.926;2023-04-24T04:23:06;5.87;;;1.63;;
21697;SDS011;11010;49.548;11.926;2023-04-24T04:25:48;6.37;;;1.40;;
21697;SDS011;11010;49.548;11.926;2023-04-24T04:28:18;5.37;;;1.40;;
21697;SDS011;11010;49.548;11.926;2023-04-24T04:30:47;6.17;;;1.40;;
21697;SDS011;11010;49.548;11.926;2023-04-24T04:33:15;6.00;;;1.40;;
21697;SDS011;11010;49.548;11.926;2023-04-24T04:35:43;4.60;;;1.30;;
21697;SDS011;11010;49.548;11.926;2023-04-24T04:38:11;4.97;;;1.40;;
21697;SDS011;11010;49.548;11.926;2023-04-24T04:40:45;5.97;;;1.50;;
21697;SDS011;11010;49.548;11.926;2023-04-24T04:43:15;7.03;;;1.40;;
21697;SDS011;11010;49.548;11.926;2023-04-24T04:45:48;5.57;;;1.43;;
21697;SDS011;11010;49.548;11.926;2023-04-24T04:48:36;5.80;;;1.50;;
21697;SDS011;11010;49.548;11.926;2023-04-24T04:51:06;5.43;;;1.37;;
21697;SDS011;11010;49.548;11.926;2023-04-24T04:53:33;6.67;;;1.63;;
21697;SDS011;11010;49.548;11.926;2023-04-24T04:56:01;6.23;;;1.50;;
21697;SDS011;11010;49.548;11.926;2023-04-24T04:58:39;5.73;;;1.60;;
21697;SDS011;11010;49.548;11.926;2023-04-24T05:01:10;5.33;;;1.50;;
21697;SDS011;11010;49.548;11.926;2023-04-24T05:03:41;5.63;;;1.40;;
21697;SDS011;11010;49.548;11.926;2023-04-24T05:06:12;5.50;;;1.50;;
21697;SDS011;11010;49.548;11.926;2023-04-24T05:08:40;6.93;;;1.70;;
21697;SDS011;11010;49.548;11.926;2023-04-24T05:11:12;6.00;;;1.60;;
21697;SDS011;11010;49.548;11.926;2023-04-24T05:13:41;6.57;;;1.47;;
21697;SDS011;11010;49.548;11.926;2023-04-24T05:16:14;6.60;;;1.50;;
21697;SDS011;11010;49.548;11.926;2023-04-24T05:18:42;6.40;;;1.50;;
21697;SDS011;11010;49.548;11.926;2023-04-24T05:21:13;4.63;;;1.27;;
21697;SDS011;11010;49.548;11.926;2023-04-24T05:23:43;5.53;;;1.40;;
21697;SDS011;11010;49.548;11.926;2023-04-24T05:26:15;5.10;;;1.30;;
21697;SDS011;11010;49.548;11.926;2023-04-24T05:28:42;6.53;;;1.47;;
21697;SDS011;11010;49.548;11.926;2023-04-24T05:31:11;4.07;;;1.20;;
21697;SDS011;11010;49.548;11.926;2023-04-24T05:33:39;4.83;;;1.30;;
21697;SDS011;11010;49.548;11.926;2023-04-24T05:36:07;5.23;;;1.40;;
21697;SDS011;11010;49.548;11.926;2023-04-24T05:38:35;4.87;;;1.27;;
21697;SDS011;11010;49.548;11.926;2023-04-24T05:41:03;7.10;;;1.40;;
21697;SDS011;11010;49.548;11.926;2023-04-24T05:43:31;5.67;;;1.30;;
21697;SDS011;11010;49.548;11.926;2023-04-24T05:45:59;6.50;;;1.40;;
21697;SDS011;11010;49.548;11.926;2023-04-24T05:48:26;5.03;;;1.30;;
21697;SDS011;11010;49.548;11.926;2023-04-24T05:50:54;5.80;;;1.47;;
21697;SDS011;11010;49.548;11.926;2023-04-24T05:53:23;6.27;;;1.50;;
21697;SDS011;11010;49.548;11.926;2023-04-24T05:55:50;6.43;;;1.47;;
21697;SDS011;11010;49.548;11.926;2023-04-24T05:58:18;4.90;;;1.40;;
21697;SDS011;11010;49.548;11.926;2023-04-24T06:00:46;6.43;;;1.50;;
21697;SDS011;11010;49.548;11.926;2023-04-24T06:03:14;5.23;;;1.53;;
21697;SDS011;11010;49.548;11.926;2023-04-24T06:05:43;5.43;;;1.47;;
21697;SDS011;11010;49.548;11.926;2023-04-24T06:08:12;5.43;;;1.37;;
21697;SDS011;11010;49.548;11.926;2023-04-24T06:10:42;5.73;;;1.60;;
21697;SDS011;11010;49.548;11.926;2023-04-24T06:13:10;6.87;;;1.63;;
21697;SDS011;11010;49.548;11.926;2023-04-24T06:15:42;6.17;;;1.50;;
21697;SDS011;11010;49.548;11.926;2023-04-24T06:18:15;7.93;;;1.83;;
21697;SDS011;11010;49.548;11.926;2023-04-24T06:20:43;5.50;;;1.50;;
21697;SDS011;11010;49.548;11.926;2023-04-24T06:23:11;6.63;;;1.80;;
21697;SDS011;11010;49.548;11.926;2023-04-24T06:25:39;7.67;;;1.60;;
21697;SDS011;11010;49.548;11.926;2023-04-24T06:28:06;7.03;;;1.70;;
21697;SDS011;11010;49.548;11.926;2023-04-24T06:30:34;5.83;;;1.53;;
21697;SDS011;11010;49.548;11.926;2023-04-24T06:33:01;6.97;;;1.77;;
21697;SDS011;11010;49.548;11.926;2023-04-24T06:35:46;5.77;;;1.70;;
21697;SDS011;11010;49.548;11.926;2023-04-24T06:38:13;6.90;;;1.90;;
21697;SDS011;11010;49.548;11.926;2023-04-24T06:40:43;6.57;;;1.83;;
21697;SDS011;11010;49.548;11.926;2023-04-24T06:46:05;6.90;;;1.90;;
21697;SDS011;11010;49.548;11.926;2023-04-24T06:48:32;6.77;;;1.93;;
21697;SDS011;11010;49.548;11.926;2023-04-24T06:50:59;7.13;;;1.83;;
21697;SDS011;11010;49.548;11.926;2023-04-24T06:53:26;6.37;;;1.63;;
21697;SDS011;11010;49.548;11.926;2023-04-24T06:55:53;5.60;;;1.60;;
21697;SDS011;11010;49.548;11.926;2023-04-24T06:58:21;7.43;;;1.80;;
21697;SDS011;11010;49.548;11.926;2023-04-24T07:00:48;7.33;;;1.73;;
21697;SDS011;11010;49.548;11.926;2023-04-24T07:03:15;7.47;;;1.93;;
21697;SDS011;11010;49.548;11.926;2023-04-24T07:05:42;8.53;;;2.00;;
21697;SDS011;11010;49.548;11.926;2023-04-24T07:08:09;7.43;;;2.10;;
21697;SDS011;11010;49.548;11.926;2023-04-24T07:10:37;5.57;;;1.63;;
21697;SDS011;11010;49.548;11.926;2023-04-24T07:13:05;8.47;;;2.00;;
21697;SDS011;11010;49.548;11.926;2023-04-24T07:15:33;7.63;;;2.10;;
21697;SDS011;11010;49.548;11.926;2023-04-24T07:18:00;6.90;;;1.80;;
21697;SDS011;11010;49.548;11.926;2023-04-24T07:20:31;7.90;;;1.83;;
21697;SDS011;11010;49.548;11.926;2023-04-24T07:22:59;7.23;;;1.70;;
21697;SDS011;11010;49.548;11.926;2023-04-24T07:25:27;6.93;;;1.90;;
21697;SDS011;11010;49.548;11.926;2023-04-24T07:27:54;6.53;;;1.70;;
21697;SDS011;11010;49.548;11.926;2023-04-24T07:30:21;6.30;;;1.70;;
21697;SDS011;11010;49.548;11.926;2023-04-24T07:32:48;7.93;;;1.80;;
21697;SDS011;11010;49.548;11.926;2023-04-24T07:35:16;6.93;;;1.73;;
21697;SDS011;11010;49.548;11.926;2023-04-24T07:37:43;6.37;;;1.37;;
21697;SDS011;11010;49.548;11.926;2023-04-24T07:40:12;4.77;;;1.30;;
21697;SDS011;11010;49.548;11.926;2023-04-24T07:42:40;6.30;;;1.40;;
21697;SDS011;11010;49.548;11.926;2023-04-24T07:45:08;6.20;;;1.10;;
21697;SDS011;11010;49.548;11.926;2023-04-24T07:47:35;4.23;;;1.07;;
21697;SDS011;11010;49.548;11.926;2023-04-24T07:50:03;4.77;;;1.07;;
21697;SDS011;11010;49.548;11.926;2023-04-24T07:52:31;2.20;;;0.80;;
21697;SDS011;11010;49.548;11.926;2023-04-24T07:54:58;3.13;;;0.80;;
21697;SDS011;11010;49.548;11.926;2023-04-24T07:57:26;2.53;;;0.70;;
21697;SDS011;11010;49.548;11.926;2023-04-24T07:59:54;3.87;;;0.90;;
21697;SDS011;11010;49.548;11.926;2023-04-24T08:02:22;2.50;;;1.00;;
21697;SDS011;11010;49.548;11.926;2023-04-24T08:04:53;3.03;;;0.90;;
21697;SDS011;11010;49.548;11.926;2023-04-24T08:07:21;2.33;;;0.80;;
21697;SDS011;11010;49.548;11.926;2023-04-24T08:09:49;3.27;;;0.90;;
21697;SDS011;11010;49.548;11.926;2023-04-24T08:12:16;3.13;;;0.93;;
21697;SDS011;11010;49.548;11.926;2023-04-24T08:14:46;5.23;;;1.10;;
21697;SDS011;11010;49.548;11.926;2023-04-24T08:17:13;2.67;;;0.67;;
21697;SDS011;11010;49.548;11.926;2023-04-24T08:19:41;3.87;;;1.00;;
21697;SDS011;11010;49.548;11.926;2023-04-24T08:22:14;3.30;;;1.00;;
21697;SDS011;11010;49.548;11.926;2023-04-24T08:24:42;3.53;;;1.00;;
21697;SDS011;11010;49.548;11.926;2023-04-24T08:27:10;4.10;;;1.10;;
21697;SDS011;11010;49.548;11.926;2023-04-24T08:29:37;4.67;;;1.20;;
21697;SDS011;11010;49.548;11.926;2023-04-24T08:32:04;4.00;;;1.10;;
21697;SDS011;11010;49.548;11.926;2023-04-24T08:34:31;2.77;;;0.90;;
21697;SDS011;11010;49.548;11.926;2023-04-24T08:36:59;4.57;;;1.10;;
21697;SDS011;11010;49.548;11.926;2023-04-24T08:39:28;4.67;;;1.07;;
21697;SDS011;11010;49.548;11.926;2023-04-24T08:41:56;4.67;;;1.10;;
21697;SDS011;11010;49.548;11.926;2023-04-24T08:44:24;4.97;;;1.20;;
21697;SDS011;11010;49.548;11.926;2023-04-24T08:46:51;5.20;;;1.33;;
21697;SDS011;11010;49.548;11.926;2023-04-24T08:49:22;4.13;;;1.20;;
21697;SDS011;11010;49.548;11.926;2023-04-24T08:51:52;3.37;;;0.93;;
21697;SDS011;11010;49.548;11.926;2023-04-24T08:54:19;3.43;;;1.00;;
21697;SDS011;11010;49.548;11.926;2023-04-24T08:56:47;4.80;;;1.13;;
21697;SDS011;11010;49.548;11.926;2023-04-24T08:59:15;3.60;;;1.07;;
21697;SDS011;11010;49.548;11.926;2023-04-24T09:01:43;3.50;;;0.90;;
21697;SDS011;11010;49.548;11.926;2023-04-24T09:04:13;5.13;;;1.10;;
21697;SDS011;11010;49.548;11.926;2023-04-24T09:06:42;1.53;;;0.67;;
21697;SDS011;11010;49.548;11.926;2023-04-24T09:09:11;4.43;;;1.03;;
21697;SDS011;11010;49.548;11.926;2023-04-24T09:11:38;3.90;;;1.00;;
21697;SDS011;11010;49.548;11.926;2023-04-24T09:14:06;4.77;;;1.17;;
21697;SDS011;11010;49.548;11.926;2023-04-24T09:16:35;4.13;;;1.10;;
21697;SDS011;11010;49.548;11.926;2023-04-24T09:19:03;4.90;;;1.20;;
21697;SDS011;11010;49.548;11.926;2023-04-24T09:21:34;3.17;;;1.07;;
21697;SDS011;11010;49.548;11.926;2023-04-24T09:24:06;4.53;;;1.10;;
21697;SDS011;11010;49.548;11.926;2023-04-24T09:26:34;5.07;;;1.27;;
21697;SDS011;11010;49.548;11.926;2023-04-24T09:29:03;5.43;;;1.40;;
21697;SDS011;11010;49.548;11.926;2023-04-24T09:31:31;4.70;;;1.20;;
21697;SDS011;11010;49.548;11.926;2023-04-24T09:34:02;3.67;;;1.10;;
21697;SDS011;11010;49.548;11.926;2023-04-24T09:36:37;5.70;;;1.40;;
21697;SDS011;11010;49.548;11.926;2023-04-24T09:39:08;3.77;;;1.10;;
21697;SDS011;11010;49.548;11.926;2023-04-24T09:41:53;6.30;;;1.43;;
21697;SDS011;11010;49.548;11.926;2023-04-24T09:44:26;3.60;;;1.07;;
21697;SDS011;11010;49.548;11.926;2023-04-24T09:46:55;5.80;;;1.57;;
21697;SDS011;11010;49.548;11.926;2023-04-24T09:49:24;4.30;;;0.90;;
21697;SDS011;11010;49.548;11.926;2023-04-24T09:51:52;4.73;;;1.27;;
21697;SDS011;11010;49.548;11.926;2023-04-24T09:54:33;5.67;;;1.47;;
21697;SDS011;11010;49.548;11.926;2023-04-24T09:57:00;6.10;;;1.40;;
21697;SDS011;11010;49.548;11.926;2023-04-24T09:59:27;5.70;;;1.40;;
21697;SDS011;11010;49.548;11.926;2023-04-24T10:01:54;5.77;;;1.30;;
21697;SDS011;11010;49.548;11.926;2023-04-24T10:04:24;4.80;;;1.20;;
21697;SDS011;11010;49.548;11.926;2023-04-24T10:06:53;5.37;;;1.47;;
21697;SDS011;11010;49.548;11.926;2023-04-24T10:09:23;5.83;;;1.30;;
21697;SDS011;11010;49.548;11.926;2023-04-24T10:11:52;5.47;;;1.30;;
21697;SDS011;11010;49.548;11.926;2023-04-24T10:14:24;4.80;;;1.30;;
21697;SDS011;11010;49.548;11.926;2023-04-24T10:16:55;5.40;;;1.30;;
21697;SDS011;11010;49.548;11.926;2023-04-24T10:19:25;4.67;;;1.10;;
21697;SDS011;11010;49.548;11.926;2023-04-24T10:21:52;4.73;;;1.20;;
21697;SDS011;11010;49.548;11.926;2023-04-24T10:24:22;3.97;;;1.20;;
21697;SDS011;11010;49.548;11.926;2023-04-24T10:26:49;5.10;;;1.40;;
21697;SDS011;11010;49.548;11.926;2023-04-24T10:29:19;7.33;;;1.43;;
21697;SDS011;11010;49.548;11.926;2023-04-24T10:31:47;5.27;;;1.40;;
21697;SDS011;11010;49.548;11.926;2023-04-24T10:34:16;3.47;;;1.10;;
21697;SDS011;11010;49.548;11.926;2023-04-24T10:36:46;3.43;;;1.10;;
21697;SDS011;11010;49.548;11.926;2023-04-24T10:39:17;4.97;;;1.30;;
21697;SDS011;11010;49.548;11.926;2023-04-24T10:41:54;4.70;;;1.20;;
21697;SDS011;11010;49.548;11.926;2023-04-24T10:44:24;5.77;;;1.50;;
21697;SDS011;11010;49.548;11.926;2023-04-24T10:46:54;5.13;;;1.30;;
21697;SDS011;11010;49.548;11.926;2023-04-24T10:49:29;4.57;;;1.20;;
21697;SDS011;11010;49.548;11.926;2023-04-24T10:52:01;4.43;;;1.30;;
21697;SDS011;11010;49.548;11.926;2023-04-24T10:54:35;4.53;;;1.20;;
21697;SDS011;11010;49.548;11.926;2023-04-24T10:59:49;5.93;;;1.27;;
21697;SDS011;11010;49.548;11.926;2023-04-24T11:02:19;6.53;;;1.43;;
21697;SDS011;11010;49.548;11.926;2023-04-24T11:05:03;3.70;;;1.20;;
21697;SDS011;11010;49.548;11.926;2023-04-24T11:08:09;6.63;;;1.70;;
21697;SDS011;11010;49.548;11.926;2023-04-24T11:10:41;3.50;;;1.13;;
21697;SDS011;11010;49.548;11.926;2023-04-24T11:13:14;4.80;;;1.20;;
21697;SDS011;11010;49.548;11.926;2023-04-24T11:16:11;4.67;;;1.10;;
21697;SDS011;11010;49.548;11.926;2023-04-24T11:18:43;4.07;;;1.20;;
21697;SDS011;11010;49.548;11.926;2023-04-24T11:21:12;5.37;;;1.43;;
21697;SDS011;11010;49.548;11.926;2023-04-24T11:23:40;5.10;;;1.17;;
21697;SDS011;11010;49.548;11.926;2023-04-24T11:26:17;4.97;;;1.33;;
21697;SDS011;11010;49.548;11.926;2023-04-24T11:28:49;6.17;;;1.37;;
21697;SDS011;11010;49.548;11.926;2023-04-24T11:31:36;4.40;;;1.27;;
21697;SDS011;11010;49.548;11.926;2023-04-24T11:34:11;2.53;;;0.87;;
21697;SDS011;11010;49.548;11.926;2023-04-24T11:36:42;3.43;;;0.93;;
21697;SDS011;11010;49.548;11.926;2023-04-24T11:39:11;5.37;;;1.10;;
21697;SDS011;11010;49.548;11.926;2023-04-24T11:41:38;5.63;;;1.17;;
21697;SDS011;11010;49.548;11.926;2023-04-24T11:44:06;5.73;;;1.20;;
21697;SDS011;11010;49.548;11.926;2023-04-24T11:46:34;5.23;;;1.10;;
21697;SDS011;11010;49.548;11.926;2023-04-24T11:49:04;6.53;;;1.10;;
21697;SDS011;11010;49.548;11.926;2023-04-24T11:51:32;2.50;;;0.90;;
21697;SDS011;11010;49.548;11.926;2023-04-24T11:54:18;4.50;;;1.23;;
21697;SDS011;11010;49.548;11.926;2023-04-24T11:56:46;4.13;;;0.97;;
21697;SDS011;11010;49.548;11.926;2023-04-24T11:59:14;3.90;;;1.20;;
21697;SDS011;11010;49.548;11.926;2023-04-24T12:01:47;4.20;;;1.10;;
21697;SDS011;11010;49.548;11.926;2023-04-24T12:04:15;4.33;;;1.20;;
21697;SDS011;11010;49.548;11.926;2023-04-24T12:06:59;4.53;;;1.20;;
21697;SDS011;11010;49.548;11.926;2023-04-24T12:09:27;4.13;;;1.20;;
21697;SDS011;11010;49.548;11.926;2023-04-24T12:11:55;5.60;;;1.23;;
21697;SDS011;11010;49.548;11.926;2023-04-24T12:14:26;4.87;;;1.10;;
21697;SDS011;11010;49.548;11.926;2023-04-24T12:16:53;4.10;;;1.00;;
21697;SDS011;11010;49.548;11.926;2023-04-24T12:19:20;3.63;;;1.00;;
21697;SDS011;11010;49.548;11.926;2023-04-24T12:22:04;3.10;;;1.00;;
21697;SDS011;11010;49.548;11.926;2023-04-24T12:24:32;4.77;;;1.10;;
21697;SDS011;11010;49.548;11.926;2023-04-24T12:26:59;3.90;;;0.90;;
21697;SDS011;11010;49.548;11.926;2023-04-24T12:29:28;4.03;;;1.10;;
21697;SDS011;11010;49.548;11.926;2023-04-24T12:31:55;3.27;;;0.97;;
21697;SDS011;11010;49.548;11.926;2023-04-24T12:34:23;4.60;;;1.20;;
21697;SDS011;11010;49.548;11.926;2023-04-24T12:36:51;3.67;;;1.00;;
21697;SDS011;11010;49.548;11.926;2023-04-24T12:39:19;4.73;;;1.30;;
21697;SDS011;11010;49.548;11.926;2023-04-24T12:41:55;3.77;;;1.00;;
21697;SDS011;11010;49.548;11.926;2023-04-24T12:44:30;4.60;;;1.20;;
21697;SDS011;11010;49.548;11.926;2023-04-24T12:46:58;4.00;;;1.20;;
21697;SDS011;11010;49.548;11.926;2023-04-24T12:49:26;5.07;;;1.30;;
21697;SDS011;11010;49.548;11.926;2023-04-24T12:51:53;4.53;;;1.30;;
21697;SDS011;11010;49.548;11.926;2023-04-24T12:54:21;6.30;;;1.20;;
21697;SDS011;11010;49.548;11.926;2023-04-24T12:56:49;4.40;;;1.30;;
21697;SDS011;11010;49.548;11.926;2023-04-24T12:59:16;4.43;;;1.20;;
21697;SDS011;11010;49.548;11.926;2023-04-24T13:01:43;3.93;;;1.10;;
21697;SDS011;11010;49.548;11.926;2023-04-24T13:04:10;4.70;;;1.30;;
21697;SDS011;11010;49.548;11.926;2023-04-24T13:06:37;3.87;;;1.10;;
21697;SDS011;11010;49.548;11.926;2023-04-24T13:09:04;5.50;;;1.40;;
21697;SDS011;11010;49.548;11.926;2023-04-24T13:11:32;5.23;;;1.27;;
21697;SDS011;11010;49.548;11.926;2023-04-24T13:13:59;4.00;;;1.13;;
21697;SDS011;11010;49.548;11.926;2023-04-24T13:16:26;4.60;;;1.20;;
21697;SDS011;11010;49.548;11.926;2023-04-24T13:18:53;4.00;;;1.00;;
21697;SDS011;11010;49.548;11.926;2023-04-24T13:21:21;3.17;;;1.00;;
21697;SDS011;11010;49.548;11.926;2023-04-24T13:23:48;4.90;;;1.23;;
21697;SDS011;11010;49.548;11.926;2023-04-24T13:26:16;4.30;;;1.27;;
21697;SDS011;11010;49.548;11.926;2023-04-24T13:28:43;3.60;;;1.23;;
21697;SDS011;11010;49.548;11.926;2023-04-24T13:31:10;4.10;;;1.10;;
21697;SDS011;11010;49.548;11.926;2023-04-24T13:33:37;4.23;;;1.20;;
21697;SDS011;11010;49.548;11.926;2023-04-24T13:36:04;4.63;;;1.20;;
21697;SDS011;11010;49.548;11.926;2023-04-24T13:38:32;3.77;;;0.90;;
21697;SDS011;11010;49.548;11.926;2023-04-24T13:40:59;4.23;;;1.20;;
21697;SDS011;11010;49.548;11.926;2023-04-24T13:43:26;6.53;;;1.33;;
21697;SDS011;11010;49.548;11.926;2023-04-24T13:45:53;3.53;;;1.10;;
21697;SDS011;11010;49.548;11.926;2023-04-24T13:48:21;4.97;;;1.30;;
21697;SDS011;11010;49.548;11.926;2023-04-24T13:50:48;3.80;;;1.13;;
21697;SDS011;11010;49.548;11.926;2023-04-24T13:53:16;4.63;;;1.20;;
21697;SDS011;11010;49.548;11.926;2023-04-24T13:55:43;4.37;;;1.20;;
21697;SDS011;11010;49.548;11.926;2023-04-24T13:58:11;5.17;;;1.30;;
21697;SDS011;11010;49.548;11.926;2023-04-24T14:00:38;5.63;;;1.30;;
21697;SDS011;11010;49.548;11.926;2023-04-24T14:03:05;4.77;;;1.37;;
21697;SDS011;11010;49.548;11.926;2023-04-24T14:05:32;5.30;;;1.20;;
21697;SDS011;11010;49.548;11.926;2023-04-24T14:08:01;4.10;;;1.20;;
21697;SDS011;11010;49.548;11.926;2023-04-24T14:10:28;4.67;;;1.30;;
21697;SDS011;11010;49.548;11.926;2023-04-24T14:12:56;5.27;;;1.30;;
21697;SDS011;11010;49.548;11.926;2023-04-24T14:15:24;4.83;;;1.37;;
21697;SDS011;11010;49.548;11.926;2023-04-24T14:17:51;3.50;;;1.10;;
21697;SDS011;11010;49.548;11.926;2023-04-24T14:20:18;5.57;;;1.20;;
21697;SDS011;11010;49.548;11.926;2023-04-24T14:22:46;5.17;;;1.30;;
21697;SDS011;11010;49.548;11.926;2023-04-24T14:25:13;5.37;;;1.30;;
21697;SDS011;11010;49.548;11.926;2023-04-24T14:27:40;4.17;;;1.20;;
21697;SDS011;11010;49.548;11.926;2023-04-24T14:30:07;4.67;;;1.23;;
21697;SDS011;11010;49.548;11.926;2023-04-24T14:32:34;4.10;;;1.20;;
21697;SDS011;11010;49.548;11.926;2023-04-24T14:35:02;3.87;;;1.17;;
21697;SDS011;11010;49.548;11.926;2023-04-24T14:37:29;2.90;;;0.90;;
21697;SDS011;11010;49.548;11.926;2023-04-24T14:39:57;3.40;;;1.10;;
21697;SDS011;11010;49.548;11.926;2023-04-24T14:42:44;4.37;;;1.30;;
21697;SDS011;11010;49.548;11.926;2023-04-24T14:45:12;5.43;;;1.20;;
21697;SDS011;11010;49.548;11.926;2023-04-24T14:47:39;4.07;;;1.10;;
21697;SDS011;11010;49.548;11.926;2023-04-24T14:50:06;5.10;;;1.17;;
21697;SDS011;11010;49.548;11.926;2023-04-24T14:52:34;4.97;;;1.30;;